Wilda, Louisiana
Current Conditions -  °F | °C
As of 2:53 PM on Wednesday 26 Nov 2014 (Local Time) from KAEX Reporting Station
Clear Clear  
Wind Chill: 68°   Ceiling: Unl
Heat Index: 68°   Visibility: 10mi
Dew Point: 39°   Wind: 18mph
Humidity: 35%   Direction: 240°WSW
Pressure: 30.12"   Gusts: 25mph
Location:  31.3168°N, 92.7338°W
Report Text: KAEX 262053Z 24016G22KT 10SM CLR 20/04 A3012 RMK AO2 SLP203 T02000039 55007
Loading
Personal Weather Stations






























Interactive Weather Map New forecast layout! Learn more

10-Day Weather Forecast

Advertisements
Track Severe Weather on mobile